sensor_id;sensor_type;location;lat;lon;timestamp;temperature;humidity
53410;DHT22;66590;50.734;4.246;2023-04-19T00:02:19;10.30;99.90
53410;DHT22;66590;50.734;4.246;2023-04-19T00:04:46;10.30;99.90
53410;DHT22;66590;50.734;4.246;2023-04-19T00:07:15;10.30;99.90
53410;DHT22;66590;50.734;4.246;2023-04-19T00:09:42;10.30;99.90
53410;DHT22;66590;50.734;4.246;2023-04-19T00:12:09;10.20;99.90
53410;DHT22;66590;50.734;4.246;2023-04-19T00:14:36;10.20;99.90
53410;DHT22;66590;50.734;4.246;2023-04-19T00:17:03;10.20;99.90
53410;DHT22;66590;50.734;4.246;2023-04-19T00:19:30;10.20;99.90
53410;DHT22;66590;50.734;4.246;2023-04-19T00:21:57;10.20;99.90
53410;DHT22;66590;50.734;4.246;2023-04-19T00:24:26;10.20;99.90
53410;DHT22;66590;50.734;4.246;2023-04-19T00:26:53;10.20;99.90
53410;DHT22;66590;50.734;4.246;2023-04-19T00:29:20;10.10;99.90
53410;DHT22;66590;50.734;4.246;2023-04-19T00:31:47;10.10;99.90
53410;DHT22;66590;50.734;4.246;2023-04-19T00:34:14;10.10;99.90
53410;DHT22;66590;50.734;4.246;2023-04-19T00:36:41;10.10;99.90
53410;DHT22;66590;50.734;4.246;2023-04-19T00:39:08;10.10;99.90
53410;DHT22;66590;50.734;4.246;2023-04-19T00:41:37;10.10;99.90
53410;DHT22;66590;50.734;4.246;2023-04-19T00:44:04;10.00;99.90
53410;DHT22;66590;50.734;4.246;2023-04-19T00:46:31;10.00;99.90
53410;DHT22;66590;50.734;4.246;2023-04-19T00:48:58;10.00;99.90
53410;DHT22;66590;50.734;4.246;2023-04-19T00:51:25;10.00;99.90
53410;DHT22;66590;50.734;4.246;2023-04-19T00:53:53;9.90;99.90
53410;DHT22;66590;50.734;4.246;2023-04-19T00:56:21;9.90;99.90
53410;DHT22;66590;50.734;4.246;2023-04-19T00:58:49;9.90;99.90
53410;DHT22;66590;50.734;4.246;2023-04-19T01:01:17;10.00;99.90
53410;DHT22;66590;50.734;4.246;2023-04-19T01:03:45;9.90;99.90
53410;DHT22;66590;50.734;4.246;2023-04-19T01:06:12;9.90;99.90
53410;DHT22;66590;50.734;4.246;2023-04-19T01:08:39;9.80;99.90
53410;DHT22;66590;50.734;4.246;2023-04-19T01:11:06;9.80;99.90
53410;DHT22;66590;50.734;4.246;2023-04-19T01:13:33;9.80;99.90
53410;DHT22;66590;50.734;4.246;2023-04-19T01:16:01;9.80;99.90
53410;DHT22;66590;50.734;4.246;2023-04-19T01:18:29;9.80;99.90
53410;DHT22;66590;50.734;4.246;2023-04-19T01:20:56;9.80;99.90
53410;DHT22;66590;50.734;4.246;2023-04-19T01:23:24;9.70;99.90
53410;DHT22;66590;50.734;4.246;2023-04-19T01:25:51;9.70;99.90
53410;DHT22;66590;50.734;4.246;2023-04-19T01:28:18;9.70;99.90
53410;DHT22;66590;50.734;4.246;2023-04-19T01:30:45;9.70;99.90
53410;DHT22;66590;50.734;4.246;2023-04-19T01:33:12;9.60;99.90
53410;DHT22;66590;50.734;4.246;2023-04-19T01:35:39;9.60;99.90
53410;DHT22;66590;50.734;4.246;2023-04-19T01:38:06;9.60;99.90
53410;DHT22;66590;50.734;4.246;2023-04-19T01:40:34;9.60;99.90
53410;DHT22;66590;50.734;4.246;2023-04-19T01:43:01;9.60;99.90
53410;DHT22;66590;50.734;4.246;2023-04-19T01:45:28;9.70;99.90
53410;DHT22;66590;50.734;4.246;2023-04-19T01:47:55;9.70;99.90
53410;DHT22;66590;50.734;4.246;2023-04-19T01:50:22;9.70;99.90
53410;DHT22;66590;50.734;4.246;2023-04-19T01:52:49;9.70;99.90
53410;DHT22;66590;50.734;4.246;2023-04-19T01:55:16;9.70;99.90
53410;DHT22;66590;50.734;4.246;2023-04-19T01:57:44;9.70;99.90
53410;DHT22;66590;50.734;4.246;2023-04-19T02:00:12;9.70;99.90
53410;DHT22;66590;50.734;4.246;2023-04-19T02:02:39;9.60;99.90
53410;DHT22;66590;50.734;4.246;2023-04-19T02:05:07;9.60;99.90
53410;DHT22;66590;50.734;4.246;2023-04-19T02:07:34;9.60;99.90
53410;DHT22;66590;50.734;4.246;2023-04-19T02:10:02;9.60;99.90
53410;DHT22;66590;50.734;4.246;2023-04-19T02:12:33;9.50;99.90
53410;DHT22;66590;50.734;4.246;2023-04-19T02:15:02;9.50;99.90
53410;DHT22;66590;50.734;4.246;2023-04-19T02:17:29;9.50;99.90
53410;DHT22;66590;50.734;4.246;2023-04-19T02:19:56;9.40;99.90
53410;DHT22;66590;50.734;4.246;2023-04-19T02:22:23;9.40;99.90
53410;DHT22;66590;50.734;4.246;2023-04-19T02:24:50;9.40;99.90
53410;DHT22;66590;50.734;4.246;2023-04-19T02:27:17;9.40;99.90
53410;DHT22;66590;50.734;4.246;2023-04-19T02:29:44;9.40;99.90
53410;DHT22;66590;50.734;4.246;2023-04-19T02:32:13;9.40;99.90
53410;DHT22;66590;50.734;4.246;2023-04-19T02:34:40;9.40;99.90
53410;DHT22;66590;50.734;4.246;2023-04-19T02:37:07;9.30;99.90
53410;DHT22;66590;50.734;4.246;2023-04-19T02:39:34;9.40;99.90
53410;DHT22;66590;50.734;4.246;2023-04-19T02:42:00;9.30;99.90
53410;DHT22;66590;50.734;4.246;2023-04-19T02:44:27;9.40;99.90
53410;DHT22;66590;50.734;4.246;2023-04-19T02:46:54;9.40;99.90
53410;DHT22;66590;50.734;4.246;2023-04-19T02:49:23;9.40;99.90
53410;DHT22;66590;50.734;4.246;2023-04-19T02:51:50;9.50;99.90
53410;DHT22;66590;50.734;4.246;2023-04-19T02:54:17;9.60;99.90
53410;DHT22;66590;50.734;4.246;2023-04-19T02:56:44;9.70;99.90
53410;DHT22;66590;50.734;4.246;2023-04-19T02:59:11;9.70;99.90
53410;DHT22;66590;50.734;4.246;2023-04-19T03:01:38;9.70;99.90
53410;DHT22;66590;50.734;4.246;2023-04-19T03:04:05;9.70;99.90
53410;DHT22;66590;50.734;4.246;2023-04-19T03:06:34;9.60;99.90
53410;DHT22;66590;50.734;4.246;2023-04-19T03:09:01;9.60;99.90
53410;DHT22;66590;50.734;4.246;2023-04-19T03:11:28;9.60;99.90
53410;DHT22;66590;50.734;4.246;2023-04-19T03:13:55;9.60;99.90
53410;DHT22;66590;50.734;4.246;2023-04-19T03:16:22;9.50;99.90
53410;DHT22;66590;50.734;4.246;2023-04-19T03:18:49;9.60;99.90
53410;DHT22;66590;50.734;4.246;2023-04-19T03:21:16;9.50;99.90
53410;DHT22;66590;50.734;4.246;2023-04-19T03:23:44;9.50;99.90
53410;DHT22;66590;50.734;4.246;2023-04-19T03:26:11;9.50;99.90
53410;DHT22;66590;50.734;4.246;2023-04-19T03:28:38;9.50;99.90
53410;DHT22;66590;50.734;4.246;2023-04-19T03:31:05;9.50;99.90
53410;DHT22;66590;50.734;4.246;2023-04-19T03:33:32;9.60;99.90
53410;DHT22;66590;50.734;4.246;2023-04-19T03:35:59;9.50;99.90
53410;DHT22;66590;50.734;4.246;2023-04-19T03:38:26;9.50;99.90
53410;DHT22;66590;50.734;4.246;2023-04-19T03:40:54;9.40;99.90
53410;DHT22;66590;50.734;4.246;2023-04-19T03:43:21;9.40;99.90
53410;DHT22;66590;50.734;4.246;2023-04-19T03:45:49;9.40;99.90
53410;DHT22;66590;50.734;4.246;2023-04-19T03:48:16;9.50;99.90
53410;DHT22;66590;50.734;4.246;2023-04-19T03:50:43;9.40;99.90
53410;DHT22;66590;50.734;4.246;2023-04-19T03:53:10;9.40;99.90
53410;DHT22;66590;50.734;4.246;2023-04-19T03:55:37;9.40;99.90
53410;DHT22;66590;50.734;4.246;2023-04-19T03:58:05;9.40;99.90
53410;DHT22;66590;50.734;4.246;2023-04-19T04:00:32;9.40;99.90
53410;DHT22;66590;50.734;4.246;2023-04-19T04:02:59;9.40;99.90
53410;DHT22;66590;50.734;4.246;2023-04-19T04:05:26;9.40;99.90
53410;DHT22;66590;50.734;4.246;2023-04-19T04:07:54;9.40;99.90
53410;DHT22;66590;50.734;4.246;2023-04-19T04:10:20;9.40;99.90
53410;DHT22;66590;50.734;4.246;2023-04-19T04:12:47;9.40;99.90
53410;DHT22;66590;50.734;4.246;2023-04-19T04:15:16;9.30;99.90
53410;DHT22;66590;50.734;4.246;2023-04-19T04:17:43;9.30;99.90
53410;DHT22;66590;50.734;4.246;2023-04-19T04:20:11;9.30;99.90
53410;DHT22;66590;50.734;4.246;2023-04-19T04:22:40;9.30;99.90
53410;DHT22;66590;50.734;4.246;2023-04-19T04:25:07;9.30;99.90
53410;DHT22;66590;50.734;4.246;2023-04-19T04:27:35;9.30;99.90
53410;DHT22;66590;50.734;4.246;2023-04-19T04:30:02;9.30;99.90
53410;DHT22;66590;50.734;4.246;2023-04-19T04:32:31;9.30;99.90
53410;DHT22;66590;50.734;4.246;2023-04-19T04:34:58;9.30;99.90
53410;DHT22;66590;50.734;4.246;2023-04-19T04:37:25;9.20;99.90
53410;DHT22;66590;50.734;4.246;2023-04-19T04:39:52;9.20;99.90
53410;DHT22;66590;50.734;4.246;2023-04-19T04:42:19;9.20;99.90
53410;DHT22;66590;50.734;4.246;2023-04-19T04:44:46;9.20;99.90
53410;DHT22;66590;50.734;4.246;2023-04-19T04:47:13;9.20;99.90
53410;DHT22;66590;50.734;4.246;2023-04-19T04:49:41;9.20;99.90
53410;DHT22;66590;50.734;4.246;2023-04-19T04:52:08;9.20;99.90
53410;DHT22;66590;50.734;4.246;2023-04-19T04:54:35;9.20;99.90
53410;DHT22;66590;50.734;4.246;2023-04-19T04:57:02;9.20;99.90
53410;DHT22;66590;50.734;4.246;2023-04-19T04:59:29;9.20;99.90
53410;DHT22;66590;50.734;4.246;2023-04-19T05:01:56;9.20;99.90
53410;DHT22;66590;50.734;4.246;2023-04-19T05:04:23;9.20;99.90
53410;DHT22;66590;50.734;4.246;2023-04-19T05:06:52;9.20;99.90
53410;DHT22;66590;50.734;4.246;2023-04-19T05:09:19;9.30;99.90
53410;DHT22;66590;50.734;4.246;2023-04-19T05:11:46;9.30;99.90
53410;DHT22;66590;50.734;4.246;2023-04-19T05:14:13;9.30;99.90
53410;DHT22;66590;50.734;4.246;2023-04-19T05:16:40;9.40;99.90
53410;DHT22;66590;50.734;4.246;2023-04-19T05:19:07;9.40;99.90
53410;DHT22;66590;50.734;4.246;2023-04-19T05:21:34;9.40;99.90
53410;DHT22;66590;50.734;4.246;2023-04-19T05:24:03;9.40;99.90
53410;DHT22;66590;50.734;4.246;2023-04-19T05:26:31;9.50;99.90
53410;DHT22;66590;50.734;4.246;2023-04-19T05:28:58;9.50;99.90
53410;DHT22;66590;50.734;4.246;2023-04-19T05:31:25;9.60;99.90
53410;DHT22;66590;50.734;4.246;2023-04-19T05:33:52;9.60;99.90
53410;DHT22;66590;50.734;4.246;2023-04-19T05:36:19;9.70;99.90
53410;DHT22;66590;50.734;4.246;2023-04-19T05:38:46;9.70;99.90
53410;DHT22;66590;50.734;4.246;2023-04-19T05:41:14;9.70;99.90
53410;DHT22;66590;50.734;4.246;2023-04-19T05:43:41;9.80;99.90
53410;DHT22;66590;50.734;4.246;2023-04-19T05:46:08;9.90;99.90
53410;DHT22;66590;50.734;4.246;2023-04-19T05:48:35;9.90;99.90
53410;DHT22;66590;50.734;4.246;2023-04-19T05:51:02;10.00;99.90
53410;DHT22;66590;50.734;4.246;2023-04-19T05:53:29;10.10;99.90
53410;DHT22;66590;50.734;4.246;2023-04-19T05:56:04;10.10;99.90
53410;DHT22;66590;50.734;4.246;2023-04-19T05:58:32;10.10;99.90
53410;DHT22;66590;50.734;4.246;2023-04-19T06:01:06;10.20;99.90
53410;DHT22;66590;50.734;4.246;2023-04-19T06:03:33;10.30;99.90
53410;DHT22;66590;50.734;4.246;2023-04-19T06:06:04;10.30;99.90
53410;DHT22;66590;50.734;4.246;2023-04-19T06:08:38;10.30;99.90
53410;DHT22;66590;50.734;4.246;2023-04-19T06:11:05;10.50;99.90
53410;DHT22;66590;50.734;4.246;2023-04-19T06:13:56;10.50;99.90
53410;DHT22;66590;50.734;4.246;2023-04-19T06:16:23;10.60;99.90
53410;DHT22;66590;50.734;4.246;2023-04-19T06:18:56;10.70;99.90
53410;DHT22;66590;50.734;4.246;2023-04-19T06:21:23;11.10;99.90
53410;DHT22;66590;50.734;4.246;2023-04-19T06:23:57;11.70;99.90
53410;DHT22;66590;50.734;4.246;2023-04-19T06:26:24;12.30;99.90
53410;DHT22;66590;50.734;4.246;2023-04-19T06:28:59;12.80;99.90
53410;DHT22;66590;50.734;4.246;2023-04-19T06:31:26;13.10;99.90
53410;DHT22;66590;50.734;4.246;2023-04-19T06:34:00;13.30;99.90
53410;DHT22;66590;50.734;4.246;2023-04-19T06:36:27;13.60;99.90
53410;DHT22;66590;50.734;4.246;2023-04-19T06:39:01;14.00;99.90
53410;DHT22;66590;50.734;4.246;2023-04-19T06:41:28;14.00;99.90
53410;DHT22;66590;50.734;4.246;2023-04-19T06:43:55;14.00;99.90
53410;DHT22;66590;50.734;4.246;2023-04-19T06:46:30;14.20;99.90
53410;DHT22;66590;50.734;4.246;2023-04-19T06:48:58;14.50;99.90
53410;DHT22;66590;50.734;4.246;2023-04-19T06:51:32;14.40;99.90
53410;DHT22;66590;50.734;4.246;2023-04-19T06:53:59;14.80;99.90
53410;DHT22;66590;50.734;4.246;2023-04-19T06:56:39;14.80;99.90
53410;DHT22;66590;50.734;4.246;2023-04-19T06:59:07;15.00;99.90
53410;DHT22;66590;50.734;4.246;2023-04-19T07:01:41;14.80;99.90
53410;DHT22;66590;50.734;4.246;2023-04-19T07:04:08;14.80;99.90
53410;DHT22;66590;50.734;4.246;2023-04-19T07:06:42;15.00;99.90
53410;DHT22;66590;50.734;4.246;2023-04-19T07:09:09;15.40;99.90
53410;DHT22;66590;50.734;4.246;2023-04-19T07:11:43;15.40;99.90
53410;DHT22;66590;50.734;4.246;2023-04-19T07:14:10;15.60;99.90
53410;DHT22;66590;50.734;4.246;2023-04-19T07:16:37;15.40;99.90
53410;DHT22;66590;50.734;4.246;2023-04-19T07:19:11;15.10;99.90
53410;DHT22;66590;50.734;4.246;2023-04-19T07:21:38;15.20;99.90
53410;DHT22;66590;50.734;4.246;2023-04-19T07:24:12;15.70;99.90
53410;DHT22;66590;50.734;4.246;2023-04-19T07:26:39;16.00;99.90
53410;DHT22;66590;50.734;4.246;2023-04-19T07:29:13;16.00;99.90
53410;DHT22;66590;50.734;4.246;2023-04-19T07:31:40;16.10;99.90
53410;DHT22;66590;50.734;4.246;2023-04-19T07:34:07;16.50;99.90
53410;DHT22;66590;50.734;4.246;2023-04-19T07:36:43;16.60;99.90
53410;DHT22;66590;50.734;4.246;2023-04-19T07:39:09;16.90;99.90
53410;DHT22;66590;50.734;4.246;2023-04-19T07:41:44;16.60;99.90
53410;DHT22;66590;50.734;4.246;2023-04-19T07:44:11;16.40;99.90
53410;DHT22;66590;50.734;4.246;2023-04-19T07:46:44;16.40;99.90
53410;DHT22;66590;50.734;4.246;2023-04-19T07:49:12;16.40;99.90
53410;DHT22;66590;50.734;4.246;2023-04-19T07:51:39;16.50;99.90
53410;DHT22;66590;50.734;4.246;2023-04-19T07:54:08;16.60;99.90
53410;DHT22;66590;50.734;4.246;2023-04-19T07:56:35;16.80;99.90
53410;DHT22;66590;50.734;4.246;2023-04-19T07:59:02;17.10;99.90
53410;DHT22;66590;50.734;4.246;2023-04-19T08:01:35;17.40;99.90
53410;DHT22;66590;50.734;4.246;2023-04-19T08:04:02;17.50;99.90
53410;DHT22;66590;50.734;4.246;2023-04-19T08:06:30;17.90;99.90
53410;DHT22;66590;50.734;4.246;2023-04-19T08:08:57;17.40;99.90
53410;DHT22;66590;50.734;4.246;2023-04-19T08:11:27;17.00;99.90
53410;DHT22;66590;50.734;4.246;2023-04-19T08:13:54;16.50;99.90
53410;DHT22;66590;50.734;4.246;2023-04-19T08:16:40;16.00;99.90
53410;DHT22;66590;50.734;4.246;2023-04-19T08:19:27;16.00;99.90
53410;DHT22;66590;50.734;4.246;2023-04-19T08:21:55;16.20;99.90
53410;DHT22;66590;50.734;4.246;2023-04-19T08:24:22;16.50;99.90
53410;DHT22;66590;50.734;4.246;2023-04-19T08:26:50;16.60;99.90
53410;DHT22;66590;50.734;4.246;2023-04-19T08:29:17;16.70;99.90
53410;DHT22;66590;50.734;4.246;2023-04-19T08:31:45;16.70;99.90
53410;DHT22;66590;50.734;4.246;2023-04-19T08:34:12;16.50;99.90
53410;DHT22;66590;50.734;4.246;2023-04-19T08:36:39;16.70;99.90
53410;DHT22;66590;50.734;4.246;2023-04-19T08:39:18;16.70;99.90
53410;DHT22;66590;50.734;4.246;2023-04-19T08:42:03;16.90;99.90
53410;DHT22;66590;50.734;4.246;2023-04-19T08:44:39;16.80;99.90
53410;DHT22;66590;50.734;4.246;2023-04-19T08:47:26;17.00;99.90
53410;DHT22;66590;50.734;4.246;2023-04-19T08:49:59;17.20;99.90
53410;DHT22;66590;50.734;4.246;2023-04-19T08:52:46;17.30;99.90
53410;DHT22;66590;50.734;4.246;2023-04-19T08:55:25;17.30;99.90
53410;DHT22;66590;50.734;4.246;2023-04-19T08:57:55;17.30;99.90
53410;DHT22;66590;50.734;4.246;2023-04-19T09:00:23;17.40;99.90
53410;DHT22;66590;50.734;4.246;2023-04-19T09:02:51;17.50;99.90
53410;DHT22;66590;50.734;4.246;2023-04-19T09:05:19;17.70;99.90
53410;DHT22;66590;50.734;4.246;2023-04-19T09:07:47;17.60;99.90
53410;DHT22;66590;50.734;4.246;2023-04-19T09:10:15;17.70;99.90
53410;DHT22;66590;50.734;4.246;2023-04-19T09:12:43;17.80;99.90
53410;DHT22;66590;50.734;4.246;2023-04-19T09:15:35;17.80;99.90
53410;DHT22;66590;50.734;4.246;2023-04-19T09:18:03;17.80;99.90
53410;DHT22;66590;50.734;4.246;2023-04-19T09:20:35;17.80;99.90
53410;DHT22;66590;50.734;4.246;2023-04-19T09:23:03;17.30;99.90
53410;DHT22;66590;50.734;4.246;2023-04-19T09:25:30;16.90;99.90
53410;DHT22;66590;50.734;4.246;2023-04-19T09:28:17;17.00;99.90
53410;DHT22;66590;50.734;4.246;2023-04-19T09:30:46;17.30;99.90
53410;DHT22;66590;50.734;4.246;2023-04-19T09:33:33;17.10;99.90
53410;DHT22;66590;50.734;4.246;2023-04-19T09:36:00;16.70;99.90
53410;DHT22;66590;50.734;4.246;2023-04-19T09:38:28;17.00;99.90
53410;DHT22;66590;50.734;4.246;2023-04-19T09:41:05;17.10;99.90
53410;DHT22;66590;50.734;4.246;2023-04-19T09:43:32;17.40;99.90
53410;DHT22;66590;50.734;4.246;2023-04-19T09:46:31;17.30;99.90
53410;DHT22;66590;50.734;4.246;2023-04-19T09:49:14;17.70;99.90
53410;DHT22;66590;50.734;4.246;2023-04-19T09:51:54;17.60;99.90
53410;DHT22;66590;50.734;4.246;2023-04-19T09:54:23;17.90;99.90
53410;DHT22;66590;50.734;4.246;2023-04-19T09:56:51;18.40;99.90
53410;DHT22;66590;50.734;4.246;2023-04-19T09:59:19;18.90;99.90
53410;DHT22;66590;50.734;4.246;2023-04-19T10:01:53;19.10;99.90
53410;DHT22;66590;50.734;4.246;2023-04-19T10:04:21;19.30;99.90
53410;DHT22;66590;50.734;4.246;2023-04-19T10:07:08;19.10;99.90
53410;DHT22;66590;50.734;4.246;2023-04-19T10:09:56;19.40;99.90
53410;DHT22;66590;50.734;4.246;2023-04-19T10:12:44;19.50;99.90
53410;DHT22;66590;50.734;4.246;2023-04-19T10:15:33;19.20;99.90
53410;DHT22;66590;50.734;4.246;2023-04-19T10:18:18;19.40;99.90
53410;DHT22;66590;50.734;4.246;2023-04-19T10:20:50;19.30;99.90
53410;DHT22;66590;50.734;4.246;2023-04-19T10:23:19;19.60;99.90
53410;DHT22;66590;50.734;4.246;2023-04-19T10:25:47;20.20;99.90
53410;DHT22;66590;50.734;4.246;2023-04-19T10:28:15;20.60;99.90
53410;DHT22;66590;50.734;4.246;2023-04-19T10:30:52;20.90;99.90
53410;DHT22;66590;50.734;4.246;2023-04-19T10:33:25;20.60;99.90
53410;DHT22;66590;50.734;4.246;2023-04-19T10:35:55;20.10;99.90
53410;DHT22;66590;50.734;4.246;2023-04-19T10:38:35;19.60;99.90
53410;DHT22;66590;50.734;4.246;2023-04-19T10:41:03;19.10;99.90
53410;DHT22;66590;50.734;4.246;2023-04-19T10:43:31;18.80;99.90
53410;DHT22;66590;50.734;4.246;2023-04-19T10:45:59;18.20;99.90
53410;DHT22;66590;50.734;4.246;2023-04-19T10:48:39;18.40;99.90
53410;DHT22;66590;50.734;4.246;2023-04-19T10:51:13;18.90;99.90
53410;DHT22;66590;50.734;4.246;2023-04-19T10:53:55;18.90;99.90
53410;DHT22;66590;50.734;4.246;2023-04-19T10:59:29;18.80;99.90
53410;DHT22;66590;50.734;4.246;2023-04-19T11:01:58;18.70;99.90
53410;DHT22;66590;50.734;4.246;2023-04-19T11:04:59;18.40;99.90
53410;DHT22;66590;50.734;4.246;2023-04-19T11:07:26;18.10;99.90
53410;DHT22;66590;50.734;4.246;2023-04-19T11:09:53;17.90;99.90
53410;DHT22;66590;50.734;4.246;2023-04-19T11:12:20;17.50;99.90
53410;DHT22;66590;50.734;4.246;2023-04-19T11:14:50;17.80;99.90
53410;DHT22;66590;50.734;4.246;2023-04-19T11:17:18;18.10;99.90
53410;DHT22;66590;50.734;4.246;2023-04-19T11:19:52;18.60;99.90
53410;DHT22;66590;50.734;4.246;2023-04-19T11:22:25;19.00;99.90
53410;DHT22;66590;50.734;4.246;2023-04-19T11:24:55;19.50;99.80
53410;DHT22;66590;50.734;4.246;2023-04-19T11:27:22;19.50;99.90
53410;DHT22;66590;50.734;4.246;2023-04-19T11:29:49;18.90;99.70
53410;DHT22;66590;50.734;4.246;2023-04-19T11:32:19;18.30;99.90
53410;DHT22;66590;50.734;4.246;2023-04-19T11:34:46;18.20;99.90
53410;DHT22;66590;50.734;4.246;2023-04-19T11:37:13;18.50;99.60
53410;DHT22;66590;50.734;4.246;2023-04-19T11:39:48;18.80;99.40
53410;DHT22;66590;50.734;4.246;2023-04-19T11:42:18;18.20;99.10
53410;DHT22;66590;50.734;4.246;2023-04-19T11:44:50;18.30;99.90
53410;DHT22;66590;50.734;4.246;2023-04-19T11:47:17;18.50;99.90
53410;DHT22;66590;50.734;4.246;2023-04-19T11:49:44;18.50;99.80
53410;DHT22;66590;50.734;4.246;2023-04-19T11:52:11;18.60;98.80
53410;DHT22;66590;50.734;4.246;2023-04-19T11:54:45;18.30;99.30
53410;DHT22;66590;50.734;4.246;2023-04-19T11:57:14;18.30;99.90
53410;DHT22;66590;50.734;4.246;2023-04-19T12:00:02;18.30;99.60
53410;DHT22;66590;50.734;4.246;2023-04-19T12:02:29;17.80;99.90
53410;DHT22;66590;50.734;4.246;2023-04-19T12:05:06;17.70;99.90
53410;DHT22;66590;50.734;4.246;2023-04-19T12:07:33;17.70;99.90
53410;DHT22;66590;50.734;4.246;2023-04-19T12:10:07;18.00;99.90
53410;DHT22;66590;50.734;4.246;2023-04-19T12:12:36;18.30;99.30
53410;DHT22;66590;50.734;4.246;2023-04-19T12:15:04;18.20;99.40
53410;DHT22;66590;50.734;4.246;2023-04-19T12:17:31;18.70;98.30
53410;DHT22;66590;50.734;4.246;2023-04-19T12:19:59;19.00;97.20
53410;DHT22;66590;50.734;4.246;2023-04-19T12:22:25;19.30;96.20
53410;DHT22;66590;50.734;4.246;2023-04-19T12:24:53;19.40;95.40
53410;DHT22;66590;50.734;4.246;2023-04-19T12:27:20;19.40;95.50
53410;DHT22;66590;50.734;4.246;2023-04-19T12:29:48;19.20;95.60
53410;DHT22;66590;50.734;4.246;2023-04-19T12:32:15;19.10;95.80
53410;DHT22;66590;50.734;4.246;2023-04-19T12:34:42;18.80;95.90
53410;DHT22;66590;50.734;4.246;2023-04-19T12:37:09;18.70;95.90
53410;DHT22;66590;50.734;4.246;2023-04-19T12:39:36;19.00;95.30
53410;DHT22;66590;50.734;4.246;2023-04-19T12:42:04;19.20;94.10
53410;DHT22;66590;50.734;4.246;2023-04-19T12:44:31;19.20;93.30
53410;DHT22;66590;50.734;4.246;2023-04-19T12:46:59;18.80;93.20
53410;DHT22;66590;50.734;4.246;2023-04-19T12:49:26;18.70;93.20
53410;DHT22;66590;50.734;4.246;2023-04-19T12:51:53;18.80;93.70
53410;DHT22;66590;50.734;4.246;2023-04-19T12:54:23;19.00;93.10
53410;DHT22;66590;50.734;4.246;2023-04-19T12:56:50;19.00;92.20
53410;DHT22;66590;50.734;4.246;2023-04-19T12:59:17;19.10;92.40
53410;DHT22;66590;50.734;4.246;2023-04-19T13:01:44;19.00;91.50
53410;DHT22;66590;50.734;4.246;2023-04-19T13:04:13;19.10;91.50
53410;DHT22;66590;50.734;4.246;2023-04-19T13:06:41;19.30;91.70
53410;DHT22;66590;50.734;4.246;2023-04-19T13:09:08;18.90;90.50
53410;DHT22;66590;50.734;4.246;2023-04-19T13:11:38;18.40;90.80
53410;DHT22;66590;50.734;4.246;2023-04-19T13:14:05;18.70;91.80
53410;DHT22;66590;50.734;4.246;2023-04-19T13:16:31;19.00;90.20
53410;DHT22;66590;50.734;4.246;2023-04-19T13:18:58;19.00;90.10
53410;DHT22;66590;50.734;4.246;2023-04-19T13:21:27;19.00;89.20
53410;DHT22;66590;50.734;4.246;2023-04-19T13:23:54;19.20;85.10
53410;DHT22;66590;50.734;4.246;2023-04-19T13:26:23;19.30;83.90
53410;DHT22;66590;50.734;4.246;2023-04-19T13:28:50;19.10;83.70
53410;DHT22;66590;50.734;4.246;2023-04-19T13:31:17;19.10;83.60
53410;DHT22;66590;50.734;4.246;2023-04-19T13:33:44;19.20;83.10
53410;DHT22;66590;50.734;4.246;2023-04-19T13:36:11;19.20;79.70
53410;DHT22;66590;50.734;4.246;2023-04-19T13:38:40;19.20;79.30
53410;DHT22;66590;50.734;4.246;2023-04-19T13:41:07;19.10;74.30
53410;DHT22;66590;50.734;4.246;2023-04-19T13:43:34;19.00;74.60
53410;DHT22;66590;50.734;4.246;2023-04-19T13:46:01;19.10;74.50
53410;DHT22;66590;50.734;4.246;2023-04-19T13:48:28;19.00;72.30
53410;DHT22;66590;50.734;4.246;2023-04-19T13:50:56;18.90;73.50
53410;DHT22;66590;50.734;4.246;2023-04-19T13:53:25;19.00;76.00
53410;DHT22;66590;50.734;4.246;2023-04-19T13:55:53;19.00;72.80
53410;DHT22;66590;50.734;4.246;2023-04-19T13:58:21;19.10;74.50
53410;DHT22;66590;50.734;4.246;2023-04-19T14:00:48;19.00;71.10
53410;DHT22;66590;50.734;4.246;2023-04-19T14:03:15;19.00;69.80
53410;DHT22;66590;50.734;4.246;2023-04-19T14:05:42;18.90;68.20
53410;DHT22;66590;50.734;4.246;2023-04-19T14:08:09;19.00;68.20
53410;DHT22;66590;50.734;4.246;2023-04-19T14:10:36;18.90;67.30
53410;DHT22;66590;50.734;4.246;2023-04-19T14:13:05;18.90;67.40
53410;DHT22;66590;50.734;4.246;2023-04-19T14:15:32;18.90;66.70
53410;DHT22;66590;50.734;4.246;2023-04-19T14:17:59;18.50;66.90
53410;DHT22;66590;50.734;4.246;2023-04-19T14:20:26;18.40;66.10
53410;DHT22;66590;50.734;4.246;2023-04-19T14:22:53;18.50;66.60
53410;DHT22;66590;50.734;4.246;2023-04-19T14:25:20;18.70;65.30
53410;DHT22;66590;50.734;4.246;2023-04-19T14:27:47;18.80;63.90
53410;DHT22;66590;50.734;4.246;2023-04-19T14:30:16;18.60;64.70
53410;DHT22;66590;50.734;4.246;2023-04-19T14:32:43;18.20;62.00
53410;DHT22;66590;50.734;4.246;2023-04-19T14:35:10;18.10;62.00
53410;DHT22;66590;50.734;4.246;2023-04-19T14:37:37;18.30;61.40
53410;DHT22;66590;50.734;4.246;2023-04-19T14:40:05;18.00;60.40
53410;DHT22;66590;50.734;4.246;2023-04-19T14:42:33;18.10;61.00
53410;DHT22;66590;50.734;4.246;2023-04-19T14:44:59;18.00;57.20
53410;DHT22;66590;50.734;4.246;2023-04-19T14:47:28;17.90;58.60
53410;DHT22;66590;50.734;4.246;2023-04-19T14:49:55;17.90;58.80
53410;DHT22;66590;50.734;4.246;2023-04-19T14:52:22;17.90;57.50
53410;DHT22;66590;50.734;4.246;2023-04-19T14:54:49;17.80;57.90
53410;DHT22;66590;50.734;4.246;2023-04-19T14:57:16;17.80;57.30
53410;DHT22;66590;50.734;4.246;2023-04-19T14:59:42;18.00;56.60
53410;DHT22;66590;50.734;4.246;2023-04-19T15:02:09;18.00;56.30
53410;DHT22;66590;50.734;4.246;2023-04-19T15:04:38;17.80;57.50
53410;DHT22;66590;50.734;4.246;2023-04-19T15:07:07;17.90;56.40
53410;DHT22;66590;50.734;4.246;2023-04-19T15:09:34;17.90;56.90
53410;DHT22;66590;50.734;4.246;2023-04-19T15:12:01;17.90;56.00
53410;DHT22;66590;50.734;4.246;2023-04-19T15:14:28;17.80;57.10
53410;DHT22;66590;50.734;4.246;2023-04-19T15:16:55;17.80;55.60
53410;DHT22;66590;50.734;4.246;2023-04-19T15:19:22;17.70;56.20
53410;DHT22;66590;50.734;4.246;2023-04-19T15:21:50;17.60;54.70
53410;DHT22;66590;50.734;4.246;2023-04-19T15:24:17;17.70;54.30
53410;DHT22;66590;50.734;4.246;2023-04-19T15:26:44;17.60;54.10
53410;DHT22;66590;50.734;4.246;2023-04-19T15:29:11;17.60;56.40
53410;DHT22;66590;50.734;4.246;2023-04-19T15:31:38;17.70;57.30
53410;DHT22;66590;50.734;4.246;2023-04-19T15:34:05;17.80;56.90
53410;DHT22;66590;50.734;4.246;2023-04-19T15:36:32;18.00;55.40
53410;DHT22;66590;50.734;4.246;2023-04-19T15:39:01;18.00;55.60
53410;DHT22;66590;50.734;4.246;2023-04-19T15:41:28;17.90;55.50
53410;DHT22;66590;50.734;4.246;2023-04-19T15:43:56;17.90;56.40
53410;DHT22;66590;50.734;4.246;2023-04-19T15:46:23;17.70;56.50
53410;DHT22;66590;50.734;4.246;2023-04-19T15:48:50;17.80;56.50
53410;DHT22;66590;50.734;4.246;2023-04-19T15:51:17;17.90;54.90